sensor_id;sensor_type;location;lat;lon;timestamp;P1;P2;P0
73825;PMS5003;64145;55.060;73.168;2022-10-18T00:00:24;3.00;3.00;0.00
73825;PMS5003;64145;55.060;73.168;2022-10-18T00:02:49;4.67;3.00;2.00
73825;PMS5003;64145;55.060;73.168;2022-10-18T00:05:15;5.33;5.33;2.00
73825;PMS5003;64145;55.060;73.168;2022-10-18T00:07:50;4.00;4.00;2.00
73825;PMS5003;64145;55.060;73.168;2022-10-18T00:10:21;5.00;5.00;1.00
73825;PMS5003;64145;55.060;73.168;2022-10-18T00:12:58;4.00;3.25;1.00
73825;PMS5003;64145;55.060;73.168;2022-10-18T00:15:24;3.00;3.00;1.00
73825;PMS5003;64145;55.060;73.168;2022-10-18T00:17:49;5.33;5.33;2.00
73825;PMS5003;64145;55.060;73.168;2022-10-18T00:20:15;5.00;5.00;1.00
73825;PMS5003;64145;55.060;73.168;2022-10-18T00:22:41;4.67;4.67;1.00
73825;PMS5003;64145;55.060;73.168;2022-10-18T00:25:07;4.50;4.00;2.00
73825;PMS5003;64145;55.060;73.168;2022-10-18T00:27:40;5.00;5.00;1.00
73825;PMS5003;64145;55.060;73.168;2022-10-18T00:30:06;4.00;3.00;1.00
73825;PMS5003;64145;55.060;73.168;2022-10-18T00:32:38;5.50;4.25;1.00
73825;PMS5003;64145;55.060;73.168;2022-10-18T00:35:13;4.25;4.00;2.00
73825;PMS5003;64145;55.060;73.168;2022-10-18T00:37:39;5.00;5.00;2.00
73825;PMS5003;64145;55.060;73.168;2022-10-18T00:40:05;3.00;3.00;2.00
73825;PMS5003;64145;55.060;73.168;2022-10-18T00:42:31;5.00;5.00;2.00
73825;PMS5003;64145;55.060;73.168;2022-10-18T00:45:26;11.50;9.75;5.50
73825;PMS5003;64145;55.060;73.168;2022-10-18T00:47:52;15.00;11.50;5.25
73825;PMS5003;64145;55.060;73.168;2022-10-18T00:50:20;17.00;13.00;6.00
73825;PMS5003;64145;55.060;73.168;2022-10-18T00:52:48;17.00;14.00;6.00
73825;PMS5003;64145;55.060;73.168;2022-10-18T00:55:15;14.00;12.00;5.00
73825;PMS5003;64145;55.060;73.168;2022-10-18T00:57:41;11.50;7.00;3.75
73825;PMS5003;64145;55.060;73.168;2022-10-18T01:00:08;6.00;5.50;3.00
73825;PMS5003;64145;55.060;73.168;2022-10-18T01:02:40;6.00;6.00;3.00
73825;PMS5003;64145;55.060;73.168;2022-10-18T01:05:06;5.00;4.00;2.00
73825;PMS5003;64145;55.060;73.168;2022-10-18T01:07:51;5.00;5.00;3.00
73825;PMS5003;64145;55.060;73.168;2022-10-18T01:10:22;6.00;6.00;3.00
73825;PMS5003;64145;55.060;73.168;2022-10-18T01:15:33;7.00;6.00;2.25
73825;PMS5003;64145;55.060;73.168;2022-10-18T01:23:04;6.00;6.00;1.75
73825;PMS5003;64145;55.060;73.168;2022-10-18T01:25:56;6.00;6.00;3.00
73825;PMS5003;64145;55.060;73.168;2022-10-18T01:30:57;6.00;5.00;3.00
73825;PMS5003;64145;55.060;73.168;2022-10-18T01:33:36;5.50;5.25;2.50
73825;PMS5003;64145;55.060;73.168;2022-10-18T01:38:29;5.00;4.00;1.00
73825;PMS5003;64145;55.060;73.168;2022-10-18T01:40:56;6.00;5.75;2.00
73825;PMS5003;64145;55.060;73.168;2022-10-18T01:43:22;6.00;6.00;1.00
73825;PMS5003;64145;55.060;73.168;2022-10-18T01:45:48;6.00;5.00;1.00
73825;PMS5003;64145;55.060;73.168;2022-10-18T01:48:15;6.00;5.00;2.00
73825;PMS5003;64145;55.060;73.168;2022-10-18T01:50:40;9.00;6.00;2.00
73825;PMS5003;64145;55.060;73.168;2022-10-18T01:53:19;9.33;7.00;4.00
73825;PMS5003;64145;55.060;73.168;2022-10-18T01:55:47;7.00;6.25;3.00
73825;PMS5003;64145;55.060;73.168;2022-10-18T01:58:17;7.00;6.25;3.00
73825;PMS5003;64145;55.060;73.168;2022-10-18T02:00:51;7.25;6.50;3.00
73825;PMS5003;64145;55.060;73.168;2022-10-18T02:03:24;7.25;6.00;3.00
73825;PMS5003;64145;55.060;73.168;2022-10-18T02:06:17;7.00;7.00;3.00
73825;PMS5003;64145;55.060;73.168;2022-10-18T02:11:22;7.00;6.00;4.00
73825;PMS5003;64145;55.060;73.168;2022-10-18T02:13:49;8.00;8.00;4.00
73825;PMS5003;64145;55.060;73.168;2022-10-18T02:19:04;7.25;7.00;3.75
73825;PMS5003;64145;55.060;73.168;2022-10-18T02:21:32;5.50;5.50;3.00
73825;PMS5003;64145;55.060;73.168;2022-10-18T02:23:58;9.50;7.50;2.50
73825;PMS5003;64145;55.060;73.168;2022-10-18T02:26:25;9.50;8.00;3.00
73825;PMS5003;64145;55.060;73.168;2022-10-18T02:28:50;5.67;5.67;2.00
73825;PMS5003;64145;55.060;73.168;2022-10-18T02:31:30;6.00;6.00;4.00
73825;PMS5003;64145;55.060;73.168;2022-10-18T02:34:13;9.50;6.00;4.00
73825;PMS5003;64145;55.060;73.168;2022-10-18T02:39:07;8.00;8.00;4.00
73825;PMS5003;64145;55.060;73.168;2022-10-18T02:41:36;7.25;7.00;3.00
73825;PMS5003;64145;55.060;73.168;2022-10-18T02:44:01;8.00;7.00;3.00
73825;PMS5003;64145;55.060;73.168;2022-10-18T02:46:27;8.00;8.00;4.00
73825;PMS5003;64145;55.060;73.168;2022-10-18T02:48:53;11.00;11.00;6.00
73825;PMS5003;64145;55.060;73.168;2022-10-18T02:51:18;9.00;8.00;5.33
73825;PMS5003;64145;55.060;73.168;2022-10-18T02:53:44;11.00;10.00;5.00
73825;PMS5003;64145;55.060;73.168;2022-10-18T02:56:14;12.50;10.50;5.00
73825;PMS5003;64145;55.060;73.168;2022-10-18T02:58:40;13.25;10.00;4.00
73825;PMS5003;64145;55.060;73.168;2022-10-18T03:01:06;9.00;6.33;2.00
73825;PMS5003;64145;55.060;73.168;2022-10-18T03:03:32;9.33;8.33;4.00
73825;PMS5003;64145;55.060;73.168;2022-10-18T03:05:57;8.00;6.33;3.00
73825;PMS5003;64145;55.060;73.168;2022-10-18T03:08:28;6.25;6.00;3.00
73825;PMS5003;64145;55.060;73.168;2022-10-18T03:10:54;7.00;6.00;4.00
73825;PMS5003;64145;55.060;73.168;2022-10-18T03:13:20;6.00;6.00;4.00
73825;PMS5003;64145;55.060;73.168;2022-10-18T03:15:46;6.33;6.00;3.00
73825;PMS5003;64145;55.060;73.168;2022-10-18T03:18:12;7.00;7.00;4.25
73825;PMS5003;64145;55.060;73.168;2022-10-18T03:20:41;6.00;6.00;4.00
73825;PMS5003;64145;55.060;73.168;2022-10-18T03:23:07;6.00;6.00;3.00
73825;PMS5003;64145;55.060;73.168;2022-10-18T03:25:33;6.50;6.50;3.00
73825;PMS5003;64145;55.060;73.168;2022-10-18T03:27:59;6.33;6.33;3.33
73825;PMS5003;64145;55.060;73.168;2022-10-18T03:30:24;8.00;6.00;3.00
73825;PMS5003;64145;55.060;73.168;2022-10-18T03:33:00;6.75;5.00;3.00
73825;PMS5003;64145;55.060;73.168;2022-10-18T03:35:26;8.00;8.00;5.00
73825;PMS5003;64145;55.060;73.168;2022-10-18T03:37:51;8.00;6.00;2.67
73825;PMS5003;64145;55.060;73.168;2022-10-18T03:40:22;6.00;6.00;4.00
73825;PMS5003;64145;55.060;73.168;2022-10-18T03:42:48;7.00;6.33;4.00
73825;PMS5003;64145;55.060;73.168;2022-10-18T03:45:14;10.00;8.00;4.33
73825;PMS5003;64145;55.060;73.168;2022-10-18T03:47:39;9.00;9.00;4.00
73825;PMS5003;64145;55.060;73.168;2022-10-18T03:50:05;7.00;6.67;3.00
73825;PMS5003;64145;55.060;73.168;2022-10-18T03:52:30;9.00;7.00;3.00
73825;PMS5003;64145;55.060;73.168;2022-10-18T03:54:56;7.00;7.00;3.00
73825;PMS5003;64145;55.060;73.168;2022-10-18T03:57:32;6.00;6.00;2.00
73825;PMS5003;64145;55.060;73.168;2022-10-18T03:59:57;6.25;6.25;2.00
73825;PMS5003;64145;55.060;73.168;2022-10-18T04:02:33;7.00;7.00;2.00
73825;PMS5003;64145;55.060;73.168;2022-10-18T04:05:09;9.00;7.00;3.00
73825;PMS5003;64145;55.060;73.168;2022-10-18T04:07:34;9.00;7.00;3.00
73825;PMS5003;64145;55.060;73.168;2022-10-18T04:10:10;7.00;7.00;3.25
73825;PMS5003;64145;55.060;73.168;2022-10-18T04:12:40;9.00;8.00;5.00
73825;PMS5003;64145;55.060;73.168;2022-10-18T04:15:06;8.33;8.00;4.00
73825;PMS5003;64145;55.060;73.168;2022-10-18T04:17:32;9.00;7.00;3.00
73825;PMS5003;64145;55.060;73.168;2022-10-18T04:19:57;9.00;8.00;3.00
73825;PMS5003;64145;55.060;73.168;2022-10-18T04:22:23;12.00;10.00;5.00
73825;PMS5003;64145;55.060;73.168;2022-10-18T04:24:51;10.00;9.00;4.00
73825;PMS5003;64145;55.060;73.168;2022-10-18T04:27:30;9.25;7.75;4.00
73825;PMS5003;64145;55.060;73.168;2022-10-18T04:29:55;10.00;8.67;5.00
73825;PMS5003;64145;55.060;73.168;2022-10-18T04:32:21;11.00;10.00;6.00
73825;PMS5003;64145;55.060;73.168;2022-10-18T04:34:46;14.33;13.00;5.00
73825;PMS5003;64145;55.060;73.168;2022-10-18T04:37:12;14.33;12.00;5.00
73825;PMS5003;64145;55.060;73.168;2022-10-18T04:39:42;14.00;11.50;5.00
73825;PMS5003;64145;55.060;73.168;2022-10-18T04:42:11;8.50;7.00;4.00
73825;PMS5003;64145;55.060;73.168;2022-10-18T04:44:36;12.00;12.00;5.00
73825;PMS5003;64145;55.060;73.168;2022-10-18T04:47:02;12.00;10.67;5.00
73825;PMS5003;64145;55.060;73.168;2022-10-18T04:49:27;13.00;12.00;6.00
73825;PMS5003;64145;55.060;73.168;2022-10-18T04:51:57;14.00;10.00;6.00
73825;PMS5003;64145;55.060;73.168;2022-10-18T04:54:23;11.00;7.50;4.00
73825;PMS5003;64145;55.060;73.168;2022-10-18T04:56:49;11.00;9.00;4.00
73825;PMS5003;64145;55.060;73.168;2022-10-18T04:59:19;12.00;10.25;5.00
73825;PMS5003;64145;55.060;73.168;2022-10-18T05:01:44;12.33;9.67;4.00
73825;PMS5003;64145;55.060;73.168;2022-10-18T05:04:16;15.00;11.00;5.00
73825;PMS5003;64145;55.060;73.168;2022-10-18T05:06:41;15.00;11.00;6.00
73825;PMS5003;64145;55.060;73.168;2022-10-18T05:09:07;14.00;9.00;4.00
73825;PMS5003;64145;55.060;73.168;2022-10-18T05:11:32;15.33;12.33;5.67
73825;PMS5003;64145;55.060;73.168;2022-10-18T05:13:58;16.33;14.00;6.67
73825;PMS5003;64145;55.060;73.168;2022-10-18T05:16:23;16.00;13.00;6.00
73825;PMS5003;64145;55.060;73.168;2022-10-18T05:18:49;15.33;12.67;5.00
73825;PMS5003;64145;55.060;73.168;2022-10-18T05:21:15;16.00;15.00;8.00
73825;PMS5003;64145;55.060;73.168;2022-10-18T05:23:40;16.00;15.00;5.00
73825;PMS5003;64145;55.060;73.168;2022-10-18T05:26:06;16.33;15.33;7.00
73825;PMS5003;64145;55.060;73.168;2022-10-18T05:28:32;17.00;16.33;7.00
73825;PMS5003;64145;55.060;73.168;2022-10-18T05:31:05;17.25;16.00;6.00
73825;PMS5003;64145;55.060;73.168;2022-10-18T05:33:31;17.00;16.00;7.00
73825;PMS5003;64145;55.060;73.168;2022-10-18T05:35:56;16.33;15.00;6.00
73825;PMS5003;64145;55.060;73.168;2022-10-18T05:38:22;16.00;13.33;6.00
73825;PMS5003;64145;55.060;73.168;2022-10-18T05:40:48;16.00;14.00;6.00
73825;PMS5003;64145;55.060;73.168;2022-10-18T05:43:13;15.00;13.00;7.33
73825;PMS5003;64145;55.060;73.168;2022-10-18T05:45:39;16.00;14.00;5.00
73825;PMS5003;64145;55.060;73.168;2022-10-18T05:48:04;13.33;11.33;5.00
73825;PMS5003;64145;55.060;73.168;2022-10-18T05:50:32;13.00;9.00;5.00
73825;PMS5003;64145;55.060;73.168;2022-10-18T05:52:57;10.25;9.75;5.00
73825;PMS5003;64145;55.060;73.168;2022-10-18T05:55:23;11.00;9.00;5.00
73825;PMS5003;64145;55.060;73.168;2022-10-18T05:57:49;13.00;11.33;6.00
73825;PMS5003;64145;55.060;73.168;2022-10-18T06:00:15;17.25;15.00;6.00
73825;PMS5003;64145;55.060;73.168;2022-10-18T06:02:40;19.00;16.00;7.00
73825;PMS5003;64145;55.060;73.168;2022-10-18T06:05:06;16.67;15.00;6.00
73825;PMS5003;64145;55.060;73.168;2022-10-18T06:07:31;16.33;15.00;6.00
73825;PMS5003;64145;55.060;73.168;2022-10-18T06:09:57;15.00;11.00;4.00
73825;PMS5003;64145;55.060;73.168;2022-10-18T06:12:23;17.33;14.00;8.00
73825;PMS5003;64145;55.060;73.168;2022-10-18T06:14:48;19.00;15.00;7.00
73825;PMS5003;64145;55.060;73.168;2022-10-18T06:17:14;17.33;15.00;6.00
73825;PMS5003;64145;55.060;73.168;2022-10-18T06:19:39;18.00;16.33;6.67
73825;PMS5003;64145;55.060;73.168;2022-10-18T06:22:07;19.00;17.50;7.00
73825;PMS5003;64145;55.060;73.168;2022-10-18T06:24:33;18.50;17.00;7.00
73825;PMS5003;64145;55.060;73.168;2022-10-18T06:27:03;20.00;17.00;8.00
73825;PMS5003;64145;55.060;73.168;2022-10-18T06:29:34;20.00;17.00;8.00
73825;PMS5003;64145;55.060;73.168;2022-10-18T06:31:59;18.50;18.50;8.00
73825;PMS5003;64145;55.060;73.168;2022-10-18T06:34:35;19.50;19.50;9.25
73825;PMS5003;64145;55.060;73.168;2022-10-18T06:37:01;20.33;19.33;9.00
73825;PMS5003;64145;55.060;73.168;2022-10-18T06:39:26;23.00;20.33;9.33
73825;PMS5003;64145;55.060;73.168;2022-10-18T06:41:52;22.00;19.00;8.00
73825;PMS5003;64145;55.060;73.168;2022-10-18T06:44:18;22.00;19.33;8.00
73825;PMS5003;64145;55.060;73.168;2022-10-18T06:46:44;20.50;19.50;8.00
73825;PMS5003;64145;55.060;73.168;2022-10-18T06:49:19;22.00;20.00;9.00
73825;PMS5003;64145;55.060;73.168;2022-10-18T06:51:45;22.00;19.00;9.33
73825;PMS5003;64145;55.060;73.168;2022-10-18T06:54:10;21.67;19.00;8.67
73825;PMS5003;64145;55.060;73.168;2022-10-18T06:56:36;22.25;19.50;9.50
73825;PMS5003;64145;55.060;73.168;2022-10-18T06:59:02;20.50;19.75;9.00
73825;PMS5003;64145;55.060;73.168;2022-10-18T07:01:28;20.25;20.25;8.00
73825;PMS5003;64145;55.060;73.168;2022-10-18T07:03:54;19.00;18.00;8.00
73825;PMS5003;64145;55.060;73.168;2022-10-18T07:06:20;17.50;16.50;6.00
73825;PMS5003;64145;55.060;73.168;2022-10-18T07:08:47;20.50;19.75;8.75
73825;PMS5003;64145;55.060;73.168;2022-10-18T07:11:19;22.00;19.00;7.00
73825;PMS5003;64145;55.060;73.168;2022-10-18T07:13:49;23.00;20.50;9.25
73825;PMS5003;64145;55.060;73.168;2022-10-18T07:16:16;20.67;19.33;8.00
73825;PMS5003;64145;55.060;73.168;2022-10-18T07:18:46;19.50;17.50;7.75
73825;PMS5003;64145;55.060;73.168;2022-10-18T07:21:14;21.50;19.25;8.00
73825;PMS5003;64145;55.060;73.168;2022-10-18T07:23:41;19.50;18.00;6.00
73825;PMS5003;64145;55.060;73.168;2022-10-18T07:26:17;17.00;15.00;5.00
73825;PMS5003;64145;55.060;73.168;2022-10-18T07:28:54;14.50;14.00;5.00
73825;PMS5003;64145;55.060;73.168;2022-10-18T07:31:22;12.00;12.00;5.50
73825;PMS5003;64145;55.060;73.168;2022-10-18T07:33:53;12.00;12.00;5.00
73825;PMS5003;64145;55.060;73.168;2022-10-18T07:36:18;13.00;13.00;4.00
73825;PMS5003;64145;55.060;73.168;2022-10-18T07:38:45;12.00;10.50;4.00
73825;PMS5003;64145;55.060;73.168;2022-10-18T07:41:12;11.00;7.00;3.00
73825;PMS5003;64145;55.060;73.168;2022-10-18T07:43:48;16.00;10.00;4.00
73825;PMS5003;64145;55.060;73.168;2022-10-18T07:46:15;16.00;11.25;4.00
73825;PMS5003;64145;55.060;73.168;2022-10-18T07:48:40;15.00;11.33;4.33
73825;PMS5003;64145;55.060;73.168;2022-10-18T07:51:06;11.00;8.67;2.00
73825;PMS5003;64145;55.060;73.168;2022-10-18T07:53:40;9.00;8.00;3.00
73825;PMS5003;64145;55.060;73.168;2022-10-18T07:56:07;8.00;7.00;2.00
73825;PMS5003;64145;55.060;73.168;2022-10-18T07:58:35;7.50;6.00;2.00
73825;PMS5003;64145;55.060;73.168;2022-10-18T08:01:02;10.00;9.00;4.00
73825;PMS5003;64145;55.060;73.168;2022-10-18T08:03:28;12.50;10.50;5.25
73825;PMS5003;64145;55.060;73.168;2022-10-18T08:05:54;12.00;8.00;3.00
73825;PMS5003;64145;55.060;73.168;2022-10-18T08:08:30;7.25;6.25;2.00
73825;PMS5003;64145;55.060;73.168;2022-10-18T08:11:00;8.00;7.00;2.00
73825;PMS5003;64145;55.060;73.168;2022-10-18T08:13:26;8.00;7.00;2.00
73825;PMS5003;64145;55.060;73.168;2022-10-18T08:16:03;7.75;7.00;2.00
73825;PMS5003;64145;55.060;73.168;2022-10-18T08:18:29;7.00;6.25;2.00
73825;PMS5003;64145;55.060;73.168;2022-10-18T08:20:59;14.00;13.50;5.75
73825;PMS5003;64145;55.060;73.168;2022-10-18T08:23:27;12.50;11.00;3.00
73825;PMS5003;64145;55.060;73.168;2022-10-18T08:25:53;9.50;8.25;4.00
73825;PMS5003;64145;55.060;73.168;2022-10-18T08:28:19;9.00;7.00;3.00
73825;PMS5003;64145;55.060;73.168;2022-10-18T08:30:45;8.00;7.00;3.00
73825;PMS5003;64145;55.060;73.168;2022-10-18T08:33:16;9.00;7.00;2.00
73825;PMS5003;64145;55.060;73.168;2022-10-18T08:35:41;6.00;5.00;1.00
73825;PMS5003;64145;55.060;73.168;2022-10-18T08:38:07;4.33;4.33;1.00
73825;PMS5003;64145;55.060;73.168;2022-10-18T08:40:41;4.25;4.25;0.00
73825;PMS5003;64145;55.060;73.168;2022-10-18T08:45:55;3.50;3.00;1.00
73825;PMS5003;64145;55.060;73.168;2022-10-18T08:48:40;5.00;4.00;1.00
73825;PMS5003;64145;55.060;73.168;2022-10-18T08:51:10;6.50;5.75;2.00
73825;PMS5003;64145;55.060;73.168;2022-10-18T08:53:55;6.25;5.75;1.00
73825;PMS5003;64145;55.060;73.168;2022-10-18T08:56:23;5.50;5.00;2.00
73825;PMS5003;64145;55.060;73.168;2022-10-18T08:58:50;5.00;5.00;2.00
73825;PMS5003;64145;55.060;73.168;2022-10-18T09:01:24;5.00;5.00;0.00
73825;PMS5003;64145;55.060;73.168;2022-10-18T09:09:05;5.33;3.00;0.00
73825;PMS5003;64145;55.060;73.168;2022-10-18T09:11:46;4.25;3.00;1.00
73825;PMS5003;64145;55.060;73.168;2022-10-18T09:17:14;4.00;4.00;2.00
73825;PMS5003;64145;55.060;73.168;2022-10-18T09:22:19;6.25;6.25;1.00
73825;PMS5003;64145;55.060;73.168;2022-10-18T09:27:19;6.00;5.00;0.00
73825;PMS5003;64145;55.060;73.168;2022-10-18T09:37:35;6.00;5.75;1.00
73825;PMS5003;64145;55.060;73.168;2022-10-18T09:42:50;7.50;6.00;1.00
73825;PMS5003;64145;55.060;73.168;2022-10-18T09:45:30;5.00;5.00;0.00
73825;PMS5003;64145;55.060;73.168;2022-10-18T09:48:09;9.00;9.00;1.00
73825;PMS5003;64145;55.060;73.168;2022-10-18T09:50:56;8.25;7.00;1.00
73825;PMS5003;64145;55.060;73.168;2022-10-18T09:53:35;6.00;6.00;2.00
73825;PMS5003;64145;55.060;73.168;2022-10-18T09:56:05;6.00;6.00;3.00
73825;PMS5003;64145;55.060;73.168;2022-10-18T09:58:40;9.00;7.00;2.00
73825;PMS5003;64145;55.060;73.168;2022-10-18T10:01:07;6.00;6.00;2.25
73825;PMS5003;64145;55.060;73.168;2022-10-18T10:03:33;7.00;7.00;2.00
73825;PMS5003;64145;55.060;73.168;2022-10-18T10:08:39;8.25;7.00;2.25
73825;PMS5003;64145;55.060;73.168;2022-10-18T10:11:24;9.00;8.00;2.25
73825;PMS5003;64145;55.060;73.168;2022-10-18T10:13:50;6.75;6.75;2.00
73825;PMS5003;64145;55.060;73.168;2022-10-18T10:16:15;5.67;5.67;1.00
73825;PMS5003;64145;55.060;73.168;2022-10-18T10:18:41;5.75;5.50;2.50
73825;PMS5003;64145;55.060;73.168;2022-10-18T10:21:12;6.00;5.75;2.75
73825;PMS5003;64145;55.060;73.168;2022-10-18T10:23:54;4.50;3.00;0.50
73825;PMS5003;64145;55.060;73.168;2022-10-18T10:26:31;3.25;3.00;0.00
73825;PMS5003;64145;55.060;73.168;2022-10-18T10:28:58;3.00;1.00;0.00
73825;PMS5003;64145;55.060;73.168;2022-10-18T10:36:27;0.25;0.00;0.00
73825;PMS5003;64145;55.060;73.168;2022-10-18T10:39:08;1.00;0.00;0.00
73825;PMS5003;64145;55.060;73.168;2022-10-18T10:41:36;0.75;0.00;0.00
73825;PMS5003;64145;55.060;73.168;2022-10-18T10:44:02;1.00;1.00;0.00
73825;PMS5003;64145;55.060;73.168;2022-10-18T10:46:33;0.00;0.00;0.00
73825;PMS5003;64145;55.060;73.168;2022-10-18T10:48:59;0.00;0.00;0.00
73825;PMS5003;64145;55.060;73.168;2022-10-18T10:51:34;0.00;0.00;0.00
73825;PMS5003;64145;55.060;73.168;2022-10-18T10:59:22;3.00;2.00;0.00
73825;PMS5003;64145;55.060;73.168;2022-10-18T11:01:56;0.75;0.75;0.00
73825;PMS5003;64145;55.060;73.168;2022-10-18T11:04:35;1.25;1.00;0.00
73825;PMS5003;64145;55.060;73.168;2022-10-18T11:09:47;8.75;8.50;4.00
73825;PMS5003;64145;55.060;73.168;2022-10-18T11:12:25;8.00;7.00;4.00
73825;PMS5003;64145;55.060;73.168;2022-10-18T11:20:20;6.00;4.00;2.00
73825;PMS5003;64145;55.060;73.168;2022-10-18T11:25:14;3.00;3.00;0.00
73825;PMS5003;64145;55.060;73.168;2022-10-18T11:35:11;4.50;4.50;0.00
73825;PMS5003;64145;55.060;73.168;2022-10-18T11:37:56;5.00;5.00;0.75
73825;PMS5003;64145;55.060;73.168;2022-10-18T11:40:29;3.00;3.00;1.50
73825;PMS5003;64145;55.060;73.168;2022-10-18T11:45:45;1.00;1.00;0.00
73825;PMS5003;64145;55.060;73.168;2022-10-18T11:58:20;5.00;4.00;0.67
73825;PMS5003;64145;55.060;73.168;2022-10-18T12:01:00;3.75;3.75;1.25
73825;PMS5003;64145;55.060;73.168;2022-10-18T12:06:05;8.50;7.75;3.50
73825;PMS5003;64145;55.060;73.168;2022-10-18T12:10:58;38.67;34.00;21.00
73825;PMS5003;64145;55.060;73.168;2022-10-18T12:13:38;34.00;29.25;19.75
73825;PMS5003;64145;55.060;73.168;2022-10-18T12:16:16;28.67;26.33;17.33
73825;PMS5003;64145;55.060;73.168;2022-10-18T12:18:48;27.50;26.50;18.25
73825;PMS5003;64145;55.060;73.168;2022-10-18T12:21:16;32.00;28.50;19.50
73825;PMS5003;64145;55.060;73.168;2022-10-18T12:23:47;27.00;24.50;17.00
73825;PMS5003;64145;55.060;73.168;2022-10-18T12:26:15;21.75;20.25;13.75
73825;PMS5003;64145;55.060;73.168;2022-10-18T12:28:43;18.00;17.25;9.00
73825;PMS5003;64145;55.060;73.168;2022-10-18T12:31:25;18.00;17.00;7.50
73825;PMS5003;64145;55.060;73.168;2022-10-18T12:33:53;23.75;19.50;11.00
73825;PMS5003;64145;55.060;73.168;2022-10-18T12:38:56;32.67;27.67;17.33
73825;PMS5003;64145;55.060;73.168;2022-10-18T12:41:29;35.50;28.75;18.50
73825;PMS5003;64145;55.060;73.168;2022-10-18T12:43:57;40.50;32.75;21.00
73825;PMS5003;64145;55.060;73.168;2022-10-18T12:46:23;43.75;36.50;24.25
73825;PMS5003;64145;55.060;73.168;2022-10-18T12:48:58;44.33;37.33;25.00
73825;PMS5003;64145;55.060;73.168;2022-10-18T12:51:26;46.75;39.00;25.00
73825;PMS5003;64145;55.060;73.168;2022-10-18T12:59:26;58.33;46.33;31.00
73825;PMS5003;64145;55.060;73.168;2022-10-18T13:09:35;102.75;96.00;60.75
73825;PMS5003;64145;55.060;73.168;2022-10-18T13:25:09;22.50;20.00;11.75
73825;PMS5003;64145;55.060;73.168;2022-10-18T13:27:40;17.00;16.50;6.50
73825;PMS5003;64145;55.060;73.168;2022-10-18T13:40:59;15.00;12.75;6.00
73825;PMS5003;64145;55.060;73.168;2022-10-18T13:46:16;17.00;16.00;6.00
73825;PMS5003;64145;55.060;73.168;2022-10-18T13:48:48;17.50;16.50;7.00
73825;PMS5003;64145;55.060;73.168;2022-10-18T14:02:39;19.75;19.00;10.00
73825;PMS5003;64145;55.060;73.168;2022-10-18T14:07:50;21.50;19.00;7.00
73825;PMS5003;64145;55.060;73.168;2022-10-18T14:10:22;22.00;19.00;8.00
73825;PMS5003;64145;55.060;73.168;2022-10-18T14:12:49;22.00;20.50;9.25
73825;PMS5003;64145;55.060;73.168;2022-10-18T14:15:30;23.75;22.00;11.00
73825;PMS5003;64145;55.060;73.168;2022-10-18T14:18:04;24.75;21.25;11.25
73825;PMS5003;64145;55.060;73.168;2022-10-18T14:20:36;22.00;18.00;9.00
73825;PMS5003;64145;55.060;73.168;2022-10-18T14:25:36;24.75;22.75;16.00
73825;PMS5003;64145;55.060;73.168;2022-10-18T14:28:21;23.75;21.50;15.00
73825;PMS5003;64145;55.060;73.168;2022-10-18T14:30:50;22.00;20.00;14.00
73825;PMS5003;64145;55.060;73.168;2022-10-18T14:33:23;19.00;18.00;13.00
73825;PMS5003;64145;55.060;73.168;2022-10-18T14:36:06;19.25;17.00;10.00
73825;PMS5003;64145;55.060;73.168;2022-10-18T14:38:33;21.00;19.00;11.00
73825;PMS5003;64145;55.060;73.168;2022-10-18T14:41:06;30.75;25.25;15.50
73825;PMS5003;64145;55.060;73.168;2022-10-18T14:43:43;37.00;29.50;19.00
73825;PMS5003;64145;55.060;73.168;2022-10-18T14:46:16;31.00;28.00;18.00
73825;PMS5003;64145;55.060;73.168;2022-10-18T14:48:50;32.00;28.50;18.25
73825;PMS5003;64145;55.060;73.168;2022-10-18T14:51:16;37.75;31.00;20.00
73825;PMS5003;64145;55.060;73.168;2022-10-18T14:53:41;36.33;30.00;19.00
73825;PMS5003;64145;55.060;73.168;2022-10-18T14:56:09;36.00;29.00;20.00
73825;PMS5003;64145;55.060;73.168;2022-10-18T14:58:43;38.50;31.50;19.00
73825;PMS5003;64145;55.060;73.168;2022-10-18T15:01:19;36.00;31.00;19.00
73825;PMS5003;64145;55.060;73.168;2022-10-18T15:03:45;35.50;31.00;19.75
73825;PMS5003;64145;55.060;73.168;2022-10-18T15:06:16;42.50;35.00;22.75
73825;PMS5003;64145;55.060;73.168;2022-10-18T15:08:43;48.50;39.50;25.00
73825;PMS5003;64145;55.060;73.168;2022-10-18T15:11:10;54.25;42.50;27.50
73825;PMS5003;64145;55.060;73.168;2022-10-18T15:13:46;59.75;48.25;30.50
73825;PMS5003;64145;55.060;73.168;2022-10-18T15:16:16;64.75;56.25;36.00
73825;PMS5003;64145;55.060;73.168;2022-10-18T15:18:42;67.50;58.00;37.75
73825;PMS5003;64145;55.060;73.168;2022-10-18T15:21:22;72.50;65.00;39.00
73825;PMS5003;64145;55.060;73.168;2022-10-18T15:23:48;70.50;65.25;39.00
73825;PMS5003;64145;55.060;73.168;2022-10-18T15:26:23;67.50;58.75;37.00
73825;PMS5003;64145;55.060;73.168;2022-10-18T15:28:50;63.00;49.75;32.00
73825;PMS5003;64145;55.060;73.168;2022-10-18T15:31:24;62.00;49.50;32.25
73825;PMS5003;64145;55.060;73.168;2022-10-18T15:33:53;59.75;47.00;31.00
73825;PMS5003;64145;55.060;73.168;2022-10-18T15:36:27;62.00;48.50;31.00
73825;PMS5003;64145;55.060;73.168;2022-10-18T15:41:47;54.50;43.25;27.25
73825;PMS5003;64145;55.060;73.168;2022-10-18T15:44:27;52.25;41.00;26.00
73825;PMS5003;64145;55.060;73.168;2022-10-18T15:47:15;48.00;39.00;25.50
73825;PMS5003;64145;55.060;73.168;2022-10-18T15:49:47;47.00;38.50;25.00
73825;PMS5003;64145;55.060;73.168;2022-10-18T15:54:49;46.00;37.00;25.00
73825;PMS5003;64145;55.060;73.168;2022-10-18T15:57:14;45.00;36.00;23.33
73825;PMS5003;64145;55.060;73.168;2022-10-18T15:59:57;42.00;34.00;22.75
73825;PMS5003;64145;55.060;73.168;2022-10-18T16:02:35;38.00;32.50;21.00
73825;PMS5003;64145;55.060;73.168;2022-10-18T16:05:01;39.33;32.67;21.33
73825;PMS5003;64145;55.060;73.168;2022-10-18T16:07:27;41.00;33.50;21.00
73825;PMS5003;64145;55.060;73.168;2022-10-18T16:09:52;39.00;33.00;21.00
73825;PMS5003;64145;55.060;73.168;2022-10-18T16:12:18;42.67;35.00;23.00
73825;PMS5003;64145;55.060;73.168;2022-10-18T16:14:53;42.00;34.00;23.00
73825;PMS5003;64145;55.060;73.168;2022-10-18T16:17:19;39.00;33.00;21.00
73825;PMS5003;64145;55.060;73.168;2022-10-18T16:19:44;36.00;31.33;20.00
73825;PMS5003;64145;55.060;73.168;2022-10-18T16:22:13;37.33;31.33;21.00
73825;PMS5003;64145;55.060;73.168;2022-10-18T16:24:38;39.50;31.50;21.00
73825;PMS5003;64145;55.060;73.168;2022-10-18T16:27:04;39.33;32.33;21.00
73825;PMS5003;64145;55.060;73.168;2022-10-18T16:29:30;38.67;31.33;21.00
73825;PMS5003;64145;55.060;73.168;2022-10-18T16:31:57;39.25;32.50;21.00
73825;PMS5003;64145;55.060;73.168;2022-10-18T16:34:23;40.75;33.00;22.00
73825;PMS5003;64145;55.060;73.168;2022-10-18T16:36:51;39.50;33.00;21.00
73825;PMS5003;64145;55.060;73.168;2022-10-18T16:39:18;39.75;32.25;21.00
73825;PMS5003;64145;55.060;73.168;2022-10-18T16:41:44;40.25;33.00;21.25
73825;PMS5003;64145;55.060;73.168;2022-10-18T16:44:09;37.00;30.50;21.00
73825;PMS5003;64145;55.060;73.168;2022-10-18T16:46:40;37.00;30.75;20.00